createdAt,value
2019-05-20T00:03:44.528Z,14.50
2019-05-20T00:06:12.586Z,14.50
2019-05-20T00:08:42.503Z,14.40
2019-05-20T00:11:10.462Z,14.30
2019-05-20T00:13:40.377Z,14.30
2019-05-20T00:16:08.336Z,14.30
2019-05-20T00:18:36.362Z,14.30
2019-05-20T00:21:04.287Z,14.30
2019-05-20T00:23:33.313Z,14.30
2019-05-20T00:26:01.236Z,14.30
2019-05-20T00:28:30.077Z,14.20
2019-05-20T00:30:58.002Z,14.20
2019-05-20T00:33:26.111Z,14.10
2019-05-20T00:35:53.973Z,14.10
2019-05-20T00:38:29.727Z,14.00
2019-05-20T00:40:57.687Z,13.90
2019-05-20T00:43:26.831Z,13.90
2019-05-20T00:45:54.763Z,13.90
2019-05-20T00:48:24.835Z,13.90
2019-05-20T00:50:52.792Z,13.90
2019-05-20T00:53:22.837Z,13.90
2019-05-20T00:55:50.808Z,13.80
2019-05-20T00:58:22.388Z,13.70
2019-05-20T01:00:50.404Z,13.60
2019-05-20T01:03:18.331Z,13.60
2019-05-20T01:05:47.408Z,13.60
2019-05-20T01:08:15.334Z,13.60
2019-05-20T01:10:43.343Z,13.60
2019-05-20T01:13:11.304Z,13.50
2019-05-20T01:15:43.890Z,13.50
2019-05-20T01:18:11.807Z,13.50
2019-05-20T01:20:41.888Z,13.50
2019-05-20T01:23:09.849Z,13.40
2019-05-20T01:26:10.416Z,13.40
2019-05-20T01:28:38.384Z,13.30
2019-05-20T01:31:25.587Z,13.10
2019-05-20T01:33:53.543Z,13.10
2019-05-20T01:36:25.770Z,13.10
2019-05-20T01:38:53.743Z,13.10
2019-05-20T01:41:21.811Z,13.10
2019-05-20T01:43:49.770Z,13.10
2019-05-20T01:46:17.795Z,13.10
2019-05-20T01:48:45.797Z,13.10
2019-05-20T01:51:13.845Z,13.10
2019-05-20T01:53:41.787Z,13.10
2019-05-20T01:56:23.179Z,13.00
2019-05-20T01:58:51.105Z,13.00
2019-05-20T02:01:19.278Z,13.00
2019-05-20T02:03:47.202Z,13.00
2019-05-20T02:06:17.181Z,13.00
2019-05-20T02:08:45.139Z,13.00
2019-05-20T02:11:18.119Z,13.10
2019-05-20T02:13:53.859Z,13.10
2019-05-20T02:16:23.460Z,13.10
2019-05-20T02:19:10.819Z,13.10
2019-05-20T02:21:38.749Z,13.10
2019-05-20T02:24:07.787Z,13.10
2019-05-20T02:26:35.724Z,13.10
2019-05-20T02:29:05.784Z,13.00
2019-05-20T02:31:33.708Z,13.00
2019-05-20T02:34:01.711Z,12.80
2019-05-20T02:36:29.640Z,12.60
2019-05-20T02:39:00.853Z,12.50
2019-05-20T02:41:28.795Z,12.50
2019-05-20T02:43:56.950Z,12.30
2019-05-20T02:46:24.962Z,12.30
2019-05-20T02:48:54.924Z,12.40
2019-05-20T02:51:33.970Z,12.40
2019-05-20T02:54:02.479Z,12.50
2019-05-20T02:56:31.241Z,12.50
2019-05-20T02:58:59.166Z,12.60
2019-05-20T03:01:56.728Z,12.70
2019-05-20T03:04:24.666Z,12.70
2019-05-20T03:06:52.746Z,12.70
2019-05-20T03:09:20.684Z,12.80
2019-05-20T03:11:56.954Z,12.80
2019-05-20T03:14:24.898Z,12.70
2019-05-20T03:16:52.861Z,12.80
2019-05-20T03:19:20.835Z,12.70
2019-05-20T03:21:56.996Z,12.70
2019-05-20T03:24:24.961Z,12.60
2019-05-20T03:26:52.956Z,12.60
2019-05-20T03:29:20.945Z,12.50
2019-05-20T03:31:50.951Z,12.40
2019-05-20T03:34:43.282Z,12.40
2019-05-20T03:36:48.472Z,12.40
2019-05-20T03:39:17.529Z,12.40
2019-05-20T03:41:45.451Z,12.40
2019-05-20T03:44:13.470Z,12.40
2019-05-20T03:46:41.402Z,12.30
2019-05-20T03:49:16.973Z,12.40
2019-05-20T03:51:44.898Z,12.40
2019-05-20T03:54:13.011Z,12.30
2019-05-20T03:56:40.939Z,12.30
2019-05-20T03:59:08.919Z,12.30
2019-05-20T04:01:36.885Z,12.30
2019-05-20T04:04:04.815Z,12.40
2019-05-20T04:06:33.991Z,12.50
2019-05-20T04:12:04.778Z,12.50
2019-05-20T04:14:32.729Z,12.50
2019-05-20T04:17:00.766Z,12.40
2019-05-20T04:19:28.740Z,12.40
2019-05-20T04:21:56.705Z,12.50
2019-05-20T04:24:24.626Z,12.50
2019-05-20T04:29:49.610Z,12.50
2019-05-20T04:32:17.538Z,12.50
2019-05-20T04:34:45.525Z,12.50
2019-05-20T04:37:13.498Z,12.60
2019-05-20T04:39:41.460Z,12.60
2019-05-20T04:42:09.411Z,12.50
2019-05-20T04:44:44.710Z,12.40
2019-05-20T04:47:12.628Z,12.30
2019-05-20T04:49:41.683Z,12.30
2019-05-20T04:52:09.723Z,12.40
2019-05-20T04:54:37.672Z,12.30
2019-05-20T04:57:05.753Z,12.30
2019-05-20T04:59:33.700Z,12.30
2019-05-20T05:02:01.576Z,12.30
2019-05-20T05:04:29.609Z,12.30
2019-05-20T05:06:57.579Z,12.20
2019-05-20T05:09:25.619Z,12.30
2019-05-20T05:11:53.674Z,12.30
2019-05-20T05:14:24.683Z,12.30
2019-05-20T05:16:52.835Z,12.30
2019-05-20T05:19:21.863Z,12.30
2019-05-20T05:21:49.806Z,12.40
2019-05-20T05:24:17.800Z,12.40
2019-05-20T05:26:47.835Z,12.50
2019-05-20T05:29:15.353Z,12.60
2019-05-20T05:31:44.399Z,12.70
2019-05-20T05:34:12.697Z,12.70
2019-05-20T05:36:42.124Z,12.80
2019-05-20T05:39:10.336Z,12.90
2019-05-20T05:41:39.339Z,12.90
2019-05-20T05:44:07.257Z,13.00
2019-05-20T05:46:39.176Z,13.10
2019-05-20T05:49:07.127Z,13.20
2019-05-20T05:51:38.258Z,13.20
2019-05-20T05:54:06.203Z,13.30
2019-05-20T05:56:34.261Z,13.40
2019-05-20T06:02:00.441Z,13.60
2019-05-20T06:04:28.335Z,13.40
2019-05-20T06:06:57.273Z,13.40
2019-05-20T06:09:25.235Z,13.40
2019-05-20T06:11:57.245Z,13.40
2019-05-20T06:14:25.127Z,13.50
2019-05-20T06:16:54.091Z,13.60
2019-05-20T06:19:22.185Z,13.70
2019-05-20T06:21:52.147Z,13.80
2019-05-20T06:24:20.026Z,13.80
2019-05-20T06:26:48.077Z,13.70
2019-05-20T06:29:16.018Z,13.80
2019-05-20T06:31:44.022Z,13.90
2019-05-20T06:34:11.993Z,14.00
2019-05-20T06:36:44.642Z,14.20
2019-05-20T06:39:15.705Z,14.30
2019-05-20T06:41:43.634Z,14.20
2019-05-20T06:44:14.659Z,14.20
2019-05-20T06:46:42.604Z,14.30
2019-05-20T06:49:10.561Z,14.50
2019-05-20T06:51:38.543Z,14.60
2019-05-20T06:54:06.498Z,14.80
2019-05-20T06:56:34.614Z,14.90
2019-05-20T06:59:02.707Z,15.00
2019-05-20T07:01:30.752Z,15.00
2019-05-20T07:03:58.769Z,14.90
2019-05-20T07:06:44.091Z,15.00
2019-05-20T07:09:01.664Z,15.10
2019-05-20T07:11:29.616Z,15.10
2019-05-20T07:13:57.553Z,15.30
2019-05-20T07:16:25.522Z,15.20
2019-05-20T07:18:54.472Z,15.10
2019-05-20T07:21:22.456Z,14.80
2019-05-20T07:23:52.630Z,14.90
2019-05-20T07:26:33.290Z,15.00
2019-05-20T07:29:20.481Z,15.10
2019-05-20T07:31:52.900Z,15.10
2019-05-20T07:34:21.076Z,15.30
2019-05-20T07:37:02.436Z,15.30
2019-05-20T07:39:20.943Z,15.20
2019-05-20T07:41:48.952Z,15.30
2019-05-20T07:44:16.863Z,15.40
2019-05-20T07:46:44.987Z,15.60
2019-05-20T07:49:12.943Z,15.70
2019-05-20T07:51:42.232Z,15.80
2019-05-20T07:54:10.249Z,15.70
2019-05-20T07:56:39.616Z,15.80
2019-05-20T07:59:09.229Z,15.80
2019-05-20T08:01:37.174Z,15.80
2019-05-20T08:04:06.156Z,16.10
2019-05-20T08:06:34.113Z,16.20
2019-05-20T08:09:02.301Z,16.40
2019-05-20T08:11:30.232Z,16.50
2019-05-20T08:13:58.173Z,16.50
2019-05-20T08:16:26.152Z,16.50
2019-05-20T08:18:54.065Z,16.60
2019-05-20T08:21:22.025Z,16.60
2019-05-20T08:23:50.940Z,16.80
2019-05-20T08:26:18.891Z,16.60
2019-05-20T08:28:46.820Z,16.80
2019-05-20T08:31:14.777Z,16.90
2019-05-20T08:33:43.718Z,17.10
2019-05-20T08:36:11.684Z,17.10
2019-05-20T08:38:39.648Z,17.10
2019-05-20T08:41:07.669Z,17.10
2019-05-20T08:43:37.528Z,16.90
2019-05-20T08:46:05.496Z,17.10
2019-05-20T08:48:36.491Z,17.20
2019-05-20T08:51:04.466Z,17.10
2019-05-20T08:53:36.489Z,17.40
2019-05-20T08:56:04.489Z,17.60
2019-05-20T08:58:35.732Z,17.40
2019-05-20T09:01:03.933Z,17.70
2019-05-20T09:03:32.173Z,17.90
2019-05-20T09:06:00.097Z,18.20
2019-05-20T09:08:28.127Z,18.30
2019-05-20T09:10:56.095Z,18.30
2019-05-20T09:13:24.081Z,18.20
2019-05-20T09:15:52.049Z,18.30
2019-05-20T09:18:20.046Z,18.60
2019-05-20T09:20:48.014Z,18.80
2019-05-20T09:23:15.988Z,19.20
2019-05-20T09:25:44.057Z,19.30
2019-05-20T09:28:13.061Z,19.20
2019-05-20T09:30:46.451Z,19.30
2019-05-20T09:33:14.456Z,19.10
2019-05-20T09:35:46.781Z,19.30
2019-05-20T09:38:21.199Z,19.40
2019-05-20T09:40:45.787Z,19.60
2019-05-20T09:43:13.759Z,19.60
2019-05-20T09:46:07.784Z,19.60
2019-05-20T09:48:30.580Z,19.70
2019-05-20T09:51:17.990Z,19.70
2019-05-20T09:53:46.018Z,19.90
2019-05-20T09:56:14.104Z,20.30
2019-05-20T09:58:42.146Z,20.10
2019-05-20T10:01:10.142Z,20.00
2019-05-20T10:03:40.161Z,19.80
2019-05-20T10:06:08.202Z,19.80
2019-05-20T10:08:41.156Z,19.90
2019-05-20T10:11:05.953Z,20.10
2019-05-20T10:13:34.964Z,20.20
2019-05-20T10:16:04.015Z,20.40
2019-05-20T10:18:37.471Z,20.60
2019-05-20T10:21:01.581Z,20.60
2019-05-20T10:23:29.627Z,20.80
2019-05-20T10:25:57.547Z,20.90
2019-05-20T10:28:25.602Z,20.80
2019-05-20T10:30:53.559Z,20.50
2019-05-20T10:33:21.621Z,20.40
2019-05-20T10:35:49.549Z,20.50
2019-05-20T10:38:17.544Z,20.80
2019-05-20T10:40:45.541Z,21.10
2019-05-20T10:43:13.587Z,21.50
2019-05-20T10:45:41.537Z,21.20
2019-05-20T10:48:09.614Z,20.90
2019-05-20T10:50:37.574Z,21.10
2019-05-20T10:53:05.503Z,21.30
2019-05-20T10:55:33.668Z,21.70
2019-05-20T10:58:01.605Z,21.80
2019-05-20T11:00:30.610Z,21.80
2019-05-20T11:02:58.705Z,22.00
2019-05-20T11:05:27.836Z,21.70
2019-05-20T11:07:55.823Z,21.90
2019-05-20T11:10:23.844Z,22.30
2019-05-20T11:12:51.786Z,22.70
2019-05-20T11:15:19.851Z,22.80
2019-05-20T11:17:48.019Z,22.60
2019-05-20T11:20:19.378Z,22.70
2019-05-20T11:22:47.515Z,23.00
2019-05-20T11:25:16.622Z,22.70
2019-05-20T11:27:44.505Z,22.60
2019-05-20T11:30:12.871Z,22.40
2019-05-20T11:32:40.857Z,22.40
2019-05-20T11:35:08.960Z,22.70
2019-05-20T11:37:36.860Z,22.90
2019-05-20T11:40:06.758Z,22.80
2019-05-20T11:42:34.889Z,22.80
2019-05-20T11:45:02.929Z,22.90
2019-05-20T11:47:30.956Z,23.10
2019-05-20T11:49:59.108Z,23.30
2019-05-20T11:52:28.205Z,23.20
2019-05-20T11:54:56.124Z,23.00
2019-05-20T11:57:25.192Z,22.90
2019-05-20T11:59:53.085Z,22.80
2019-05-20T12:02:21.082Z,22.80
2019-05-20T12:04:49.054Z,23.00
2019-05-20T12:07:17.216Z,23.20
2019-05-20T12:09:49.465Z,23.60
2019-05-20T12:12:14.918Z,23.90
2019-05-20T12:14:42.836Z,24.10
2019-05-20T12:17:10.941Z,23.90
2019-05-20T12:19:38.910Z,23.80
2019-05-20T12:22:07.932Z,24.10
2019-05-20T12:24:35.841Z,24.10
2019-05-20T12:27:05.939Z,24.00
2019-05-20T12:29:33.965Z,24.10
2019-05-20T12:32:03.616Z,24.30
2019-05-20T12:34:31.783Z,24.50
2019-05-20T12:37:00.818Z,24.90
2019-05-20T12:39:29.058Z,24.70
2019-05-20T12:41:57.925Z,24.80
2019-05-20T12:44:25.877Z,24.50
2019-05-20T12:46:54.830Z,24.40
2019-05-20T12:49:23.023Z,24.30
2019-05-20T12:51:51.288Z,24.40
2019-05-20T12:54:19.332Z,24.70
2019-05-20T12:56:47.292Z,25.20
2019-05-20T12:59:17.239Z,25.50
2019-05-20T13:01:45.200Z,25.80
2019-05-20T13:04:13.209Z,25.90
2019-05-20T13:06:41.144Z,26.00
2019-05-20T13:09:09.136Z,25.80
2019-05-20T13:11:37.080Z,25.60
2019-05-20T13:14:07.133Z,25.60
2019-05-20T13:16:35.069Z,26.00
2019-05-20T13:19:04.106Z,26.30
2019-05-20T13:21:32.032Z,26.20
2019-05-20T13:23:59.996Z,26.20
2019-05-20T13:26:27.966Z,26.60
2019-05-20T13:28:59.325Z,27.00
2019-05-20T13:31:25.604Z,27.00
2019-05-20T13:33:53.512Z,26.60
2019-05-20T13:36:21.501Z,26.80
2019-05-20T13:38:49.453Z,26.70
2019-05-20T13:41:18.399Z,26.20
2019-05-20T13:43:50.839Z,25.90
2019-05-20T13:46:18.800Z,25.90
2019-05-20T13:48:46.766Z,26.00
2019-05-20T13:51:14.826Z,26.10
2019-05-20T13:53:42.768Z,26.20
2019-05-20T13:56:10.688Z,26.40
2019-05-20T13:58:38.596Z,26.70
2019-05-20T14:01:06.511Z,26.50
2019-05-20T14:03:34.623Z,26.80
2019-05-20T14:06:02.561Z,27.00
2019-05-20T14:08:30.551Z,27.10
2019-05-20T14:11:04.535Z,27.20
2019-05-20T14:13:29.105Z,26.80
2019-05-20T14:15:57.124Z,26.80
2019-05-20T14:18:25.085Z,26.80
2019-05-20T14:20:53.146Z,27.30
2019-05-20T14:23:21.083Z,27.10
2019-05-20T14:25:54.201Z,26.70
2019-05-20T14:28:22.147Z,26.20
2019-05-20T14:30:51.224Z,26.00
2019-05-20T14:33:19.175Z,26.40
2019-05-20T14:35:49.158Z,26.90
2019-05-20T14:38:17.079Z,26.50
2019-05-20T14:40:45.167Z,26.00
2019-05-20T14:43:13.128Z,26.40
2019-05-20T14:45:42.148Z,26.30
2019-05-20T14:48:10.398Z,25.90
2019-05-20T14:50:39.578Z,25.70
2019-05-20T14:53:07.597Z,26.20
2019-05-20T14:55:42.267Z,26.60
2019-05-20T14:58:05.146Z,26.90
2019-05-20T15:00:36.302Z,26.60
2019-05-20T15:03:04.337Z,26.10
2019-05-20T15:05:40.566Z,25.40
2019-05-20T15:08:08.589Z,24.70
2019-05-20T15:10:51.947Z,24.40
2019-05-20T15:13:19.879Z,24.10
2019-05-20T15:15:56.358Z,23.90
2019-05-20T15:18:24.295Z,23.80
2019-05-20T15:20:52.378Z,23.70
2019-05-20T15:23:22.301Z,23.50
2019-05-20T15:25:50.221Z,23.40
2019-05-20T15:28:18.271Z,23.30
2019-05-20T15:30:46.277Z,23.30
2019-05-20T15:33:16.316Z,23.10
2019-05-20T15:35:44.242Z,23.00
2019-05-20T15:38:12.206Z,23.00
2019-05-20T15:40:40.143Z,22.90
2019-05-20T15:43:10.225Z,22.80
2019-05-20T15:45:38.192Z,22.80
2019-05-20T15:48:07.149Z,22.70
2019-05-20T15:50:35.110Z,22.60
2019-05-20T15:53:03.286Z,22.50
2019-05-20T15:55:31.620Z,22.50
2019-05-20T15:57:59.552Z,22.40
2019-05-20T16:00:27.514Z,22.40
2019-05-20T16:02:55.472Z,22.40
2019-05-20T16:05:29.571Z,22.40
2019-05-20T16:07:57.495Z,22.40
2019-05-20T16:10:31.576Z,22.40
2019-05-20T16:12:59.540Z,22.40
2019-05-20T16:15:27.487Z,22.40
2019-05-20T16:17:55.444Z,22.40
2019-05-20T16:20:26.455Z,22.40
2019-05-20T16:22:54.428Z,22.40
2019-05-20T16:25:22.413Z,22.40
2019-05-20T16:27:50.343Z,22.40
2019-05-20T16:30:19.474Z,22.40
2019-05-20T16:32:47.446Z,22.50
2019-05-20T16:35:15.656Z,22.60
2019-05-20T16:37:43.586Z,22.70
2019-05-20T16:40:11.949Z,22.70
2019-05-20T16:42:40.389Z,22.70
2019-05-20T16:45:11.681Z,22.70
2019-05-20T16:47:37.877Z,22.80
2019-05-20T16:50:08.093Z,22.70
2019-05-20T16:52:36.595Z,22.70
2019-05-20T16:55:05.825Z,22.70
2019-05-20T16:57:38.938Z,22.70
2019-05-20T17:00:16.147Z,22.70
2019-05-20T17:02:39.880Z,22.70
2019-05-20T17:05:07.965Z,22.60
2019-05-20T17:07:35.899Z,22.50
2019-05-20T17:10:05.356Z,22.50
2019-05-20T17:12:37.100Z,22.40
2019-05-20T17:15:05.447Z,22.30
2019-05-20T17:17:46.603Z,22.30
2019-05-20T17:20:14.683Z,22.20
2019-05-20T17:22:52.788Z,22.10
2019-05-20T17:25:20.762Z,22.10
2019-05-20T17:27:52.716Z,21.90
2019-05-20T17:30:20.676Z,21.90
2019-05-20T17:32:51.830Z,21.80
2019-05-20T17:35:19.880Z,21.70
2019-05-20T17:37:49.749Z,21.50
2019-05-20T17:40:17.836Z,21.40
2019-05-20T17:43:10.505Z,21.40
2019-05-20T17:45:38.488Z,21.40
2019-05-20T17:48:07.424Z,21.30
2019-05-20T17:50:35.738Z,21.20
2019-05-20T17:53:03.755Z,21.10
2019-05-20T17:55:31.723Z,21.10
2019-05-20T17:57:59.926Z,21.00
2019-05-20T18:00:30.985Z,20.90
2019-05-20T18:02:59.132Z,20.80
2019-05-20T18:05:34.346Z,20.80
2019-05-20T18:08:02.314Z,20.70
2019-05-20T18:10:30.799Z,20.70
2019-05-20T18:12:58.709Z,20.70
2019-05-20T18:15:28.931Z,20.70
2019-05-20T18:17:56.879Z,20.70
2019-05-20T18:20:29.064Z,20.60
2019-05-20T18:22:57.065Z,20.60
2019-05-20T18:25:27.123Z,20.50
2019-05-20T18:27:55.130Z,20.50
2019-05-20T18:30:29.629Z,20.40
2019-05-20T18:32:57.594Z,20.40
2019-05-20T18:35:28.711Z,20.40
2019-05-20T18:37:56.698Z,20.30
2019-05-20T18:40:28.959Z,20.40
2019-05-20T18:42:57.710Z,20.20
2019-05-20T18:45:27.819Z,20.10
2019-05-20T18:47:55.782Z,20.10
2019-05-20T18:50:29.134Z,20.00
2019-05-20T18:52:57.083Z,20.00
2019-05-20T18:55:25.440Z,19.90
2019-05-20T18:57:56.349Z,19.90
2019-05-20T19:00:25.019Z,19.80
2019-05-20T19:02:58.192Z,19.80
2019-05-20T19:05:26.440Z,19.70
2019-05-20T19:07:55.534Z,19.70
2019-05-20T19:10:23.562Z,19.60
2019-05-20T19:12:51.736Z,19.60
2019-05-20T19:15:19.935Z,19.60
2019-05-20T19:18:07.181Z,19.50
2019-05-20T19:20:35.168Z,19.40
2019-05-20T19:23:03.255Z,19.20
2019-05-20T19:25:37.714Z,19.20
2019-05-20T19:28:01.039Z,19.00
2019-05-20T19:30:29.074Z,19.00
2019-05-20T19:32:57.180Z,18.90
2019-05-20T19:35:27.148Z,18.80
2019-05-20T19:37:55.076Z,18.70
2019-05-20T19:40:24.182Z,18.40
2019-05-20T19:42:52.341Z,18.10
2019-05-20T19:45:22.598Z,17.90
2019-05-20T19:47:50.800Z,17.80
2019-05-20T19:50:20.957Z,17.80
2019-05-20T19:52:48.920Z,17.80
2019-05-20T19:55:19.394Z,17.70
2019-05-20T19:57:47.529Z,17.70
2019-05-20T20:00:17.689Z,17.70
2019-05-20T20:02:45.695Z,17.70
2019-05-20T20:05:18.251Z,17.70
2019-05-20T20:07:46.212Z,17.60
2019-05-20T20:10:16.262Z,17.60
2019-05-20T20:12:44.193Z,17.60
2019-05-20T20:15:22.819Z,17.60
2019-05-20T20:17:50.844Z,17.60
2019-05-20T20:20:18.765Z,17.60
2019-05-20T20:22:48.857Z,17.70
2019-05-20T20:25:17.480Z,17.70
2019-05-20T20:27:48.524Z,17.70
2019-05-20T20:30:16.536Z,17.70
2019-05-20T20:32:46.010Z,17.60
2019-05-20T20:41:34.323Z,17.50
2019-05-20T20:44:02.507Z,17.40
2019-05-20T20:46:30.488Z,17.30
2019-05-20T20:49:01.713Z,17.20
2019-05-20T20:51:29.792Z,17.20
2019-05-20T20:53:59.831Z,17.10
2019-05-20T20:56:28.281Z,17.10
2019-05-20T20:58:56.224Z,17.00
2019-05-20T21:01:41.449Z,16.80
2019-05-20T21:04:09.419Z,16.60
2019-05-20T21:06:38.506Z,16.60
2019-05-20T21:09:06.720Z,16.60
2019-05-20T21:11:43.850Z,16.50
2019-05-20T21:14:11.876Z,16.40
2019-05-20T21:16:43.985Z,16.40
2019-05-20T21:19:11.975Z,16.40
2019-05-20T21:21:40.219Z,16.40
2019-05-20T21:24:08.147Z,16.40
2019-05-20T21:26:36.222Z,16.40
2019-05-20T21:29:04.204Z,16.30
2019-05-20T21:31:32.346Z,16.30
2019-05-20T21:34:00.313Z,16.20
2019-05-20T21:36:29.319Z,16.20
2019-05-20T21:39:17.674Z,16.20
2019-05-20T21:41:45.638Z,16.10
2019-05-20T21:44:18.706Z,16.10
2019-05-20T21:46:46.669Z,16.00
2019-05-20T21:49:19.764Z,16.00
2019-05-20T21:51:47.757Z,16.00
2019-05-20T21:54:22.063Z,16.00
2019-05-20T21:56:50.229Z,15.90
2019-05-20T21:59:18.426Z,15.90
2019-05-20T22:01:46.575Z,15.80
2019-05-20T22:04:15.546Z,15.70
2019-05-20T22:06:43.493Z,15.70
2019-05-20T22:09:14.796Z,15.60
2019-05-20T22:11:42.792Z,15.60
2019-05-20T22:14:10.999Z,15.60
2019-05-20T22:16:38.937Z,15.60
2019-05-20T22:19:08.976Z,15.70
2019-05-20T22:21:41.395Z,15.60
2019-05-20T22:24:09.332Z,15.50
2019-05-20T22:26:40.426Z,15.50
2019-05-20T22:29:08.371Z,15.50
2019-05-20T22:31:36.367Z,15.50
2019-05-20T22:34:04.376Z,15.40
2019-05-20T22:36:32.622Z,15.40
2019-05-20T22:39:00.536Z,15.40
2019-05-20T22:41:28.509Z,15.30
2019-05-20T22:43:59.582Z,15.30
2019-05-20T22:46:33.846Z,15.30
2019-05-20T22:49:01.780Z,15.30
2019-05-20T22:51:38.846Z,15.30
2019-05-20T22:54:06.877Z,15.20
2019-05-20T22:56:50.312Z,15.20
2019-05-20T22:59:18.291Z,15.20
2019-05-20T23:01:53.526Z,15.20
2019-05-20T23:04:21.484Z,15.10
2019-05-20T23:06:49.462Z,15.20
2019-05-20T23:09:17.452Z,15.20
2019-05-20T23:11:47.535Z,15.10
2019-05-20T23:14:15.483Z,15.10
2019-05-20T23:16:47.595Z,15.10
2019-05-20T23:19:15.579Z,15.10
2019-05-20T23:21:47.728Z,15.10
2019-05-20T23:24:15.687Z,15.10
2019-05-20T23:26:47.672Z,15.10
2019-05-20T23:29:15.609Z,15.10
2019-05-20T23:31:45.660Z,15.10
2019-05-20T23:34:13.586Z,15.10
2019-05-20T23:36:55.630Z,15.10
2019-05-20T23:39:23.575Z,15.10
2019-05-20T23:41:51.571Z,15.10
2019-05-20T23:44:19.502Z,15.10
2019-05-20T23:46:47.415Z,15.00
2019-05-20T23:52:27.700Z,15.10
2019-05-20T23:54:55.649Z,15.00
2019-05-20T23:57:27.685Z,15.00
2019-05-20T23:59:55.651Z,15.00
